Terminal Aerodrome Forecast
Issued by NWS Twin Cities, MN

Home | Current Version | Previous Version | Graphics & Text | Print | Product List | Glossary On
Versions: 1 2 3 4 5 6 7 8 9 10 11 12 13 14 15 16 17
602
FTUS43 KMPX 232339
TAFSTC
TAF
KSTC 232339Z 2400/2424 18007KT P6SM VCSH SCT040 BKN070
      TEMPO 2400/2402 4SM -TSRA BKN035CB
     FM240200 19004KT P6SM BKN100
     FM240600 VRB03KT 4SM BR SCT100
     FM241400 VRB04KT P6SM SCT200=

USA.gov is the U.S. government's official web portal to all federal, state and local government web resources and services.